Forest Home, Alabama
Current Conditions -  °F | °C
As of 2:56 PM on Monday 24 Nov 2014 (Local Time) from KPRN Reporting Station
Clear Clear  
Wind Chill: 77°   Ceiling: Unl
Heat Index: 78°   Visibility: 10mi
Dew Point: 53°   Wind: 9mph
Humidity: 43%   Direction: 270°W
Pressure: 29.83"   Gusts: NA
Location:  31.86°N, 86.84°W
Report Text: KPRN 242056Z AUTO 27008KT 10SM CLR 25/12 A2983 RMK AO2 SLP096 T02500117 53006
Loading
Personal Weather Stations






























Interactive Weather Map New forecast layout! Learn more

10-Day Weather Forecast

Advertisements
Track Severe Weather on mobile